Terminal Aerodrome Forecast
Issued by NWS Twin Cities, MN

Home | Current Version | Previous Version | Text Only | Print | Product List | Glossary Off
Versions: 1 2 3 4 5 6 7 8 9 10 11 12 13 14 15 16 17 18 19 20 21 22 23 24

000
FTUS43 KMPX 292127 AAA
TAFEAU
TAF AMD
KEAU 292127Z 2921/3018 05010KT 3SM -TSRA SCT020 BKN040CB OVC050
      TEMPO 2922/2923 VRB10G30KT 1SM -TSRA BR SCT015 BKN035CB
     FM300000 30006KT P6SM VCSH SCT050 BKN120
     FM300400 32003KT P6SM SKC
     FM301200 35007KT P6SM BKN007 OVC015=

USA.gov is the U.S. government's official web portal to all federal, state and local government web resources and services.